Time;durP1;ratioP1;P1;durP2;ratioP2;P2;SDS_P1;SDS_P2;PMS_P1;PMS_P2;Temp;Humidity;BMP_temperature;BMP_pressure;BME280_temperature;BME280_humidity;BME280_pressure;Samples;Min_cycle;Max_cycle;Signal;HPM_P1;HPM_P2
2023/04/26 00:02:43;;;;;;;1.20;1.10;;;;;;;;;;10354803;28;20026;-60
2023/04/26 00:07:44;;;;;;;1.88;1.02;;;;;;;;;;10364753;28;20033;-60
2023/04/26 00:12:44;;;;;;;1.30;1.20;;;;;;;;;;10347193;28;20034;-59
2023/04/26 00:17:46;;;;;;;1.45;1.27;;;;;;;;;;10374603;28;20041;-59
2023/04/26 00:22:46;;;;;;;2.55;1.38;;;;;;;;;;10364493;28;20104;-58
2023/04/26 00:27:47;;;;;;;1.20;1.10;;;;;;;;;;10364184;28;20030;-59
2023/04/26 00:32:47;;;;;;;1.23;0.90;;;;;;;;;;10360833;28;20100;-58
2023/04/26 00:37:48;;;;;;;1.13;1.02;;;;;;;;;;10365126;28;20103;-59
2023/04/26 00:42:59;;;;;;;1.88;1.00;;;;;;;;;;10373201;28;20625;-58
2023/04/26 00:48:02;;;;;;;1.30;1.20;;;;;;;;;;10354443;28;20026;-58
2023/04/26 00:53:03;;;;;;;1.60;1.30;;;;;;;;;;10372538;28;20058;-59
2023/04/26 00:58:03;;;;;;;1.70;1.20;;;;;;;;;;10372430;28;20038;-59
2023/04/26 01:03:04;;;;;;;1.40;1.30;;;;;;;;;;10372796;28;20022;-59
2023/04/26 01:08:05;;;;;;;1.92;1.25;;;;;;;;;;10370144;28;20033;-59
2023/04/26 01:13:07;;;;;;;0.93;0.90;;;;;;;;;;10370380;28;20038;-59
2023/04/26 01:18:07;;;;;;;1.25;1.08;;;;;;;;;;10370231;28;20371;-59
2023/04/26 01:23:10;;;;;;;1.40;1.30;;;;;;;;;;10353199;28;20034;-59
2023/04/26 01:28:11;;;;;;;1.50;1.27;;;;;;;;;;10372031;28;20045;-59
2023/04/26 01:33:11;;;;;;;1.88;1.38;;;;;;;;;;10370678;28;20419;-58
2023/04/26 01:38:13;;;;;;;1.42;1.10;;;;;;;;;;10366241;28;20045;-61
2023/04/26 01:43:14;;;;;;;1.85;1.20;;;;;;;;;;10370416;28;20038;-60
2023/04/26 01:48:15;;;;;;;1.80;1.27;;;;;;;;;;10369770;28;20500;-61
2023/04/26 01:53:15;;;;;;;2.17;1.13;;;;;;;;;;10367329;28;20050;-62
2023/04/26 01:58:16;;;;;;;1.17;1.05;;;;;;;;;;10367337;28;20026;-60
2023/04/26 02:03:17;;;;;;;0.98;0.98;;;;;;;;;;10369223;28;20069;-58
2023/04/26 02:08:17;;;;;;;1.75;1.15;;;;;;;;;;10369162;28;20034;-58
2023/04/26 02:13:20;;;;;;;1.00;1.00;;;;;;;;;;10369406;28;20100;-58
2023/04/26 02:18:21;;;;;;;1.48;1.10;;;;;;;;;;10365549;28;20374;-59
2023/04/26 02:23:23;;;;;;;1.00;1.00;;;;;;;;;;10367689;28;20018;-59
2023/04/26 02:28:23;;;;;;;1.25;1.20;;;;;;;;;;10362432;28;20030;-59
2023/04/26 02:33:24;;;;;;;1.02;1.00;;;;;;;;;;10366205;28;20030;-59
2023/04/26 02:38:25;;;;;;;1.38;1.10;;;;;;;;;;10399491;23;20062;-58
2023/04/26 02:43:26;;;;;;;1.40;1.10;;;;;;;;;;10326778;28;20034;-58
2023/04/26 02:48:26;;;;;;;1.55;1.08;;;;;;;;;;10310501;28;20026;-58
2023/04/26 02:53:27;;;;;;;1.23;0.95;;;;;;;;;;10325801;28;20022;-59
2023/04/26 02:58:28;;;;;;;1.80;1.10;;;;;;;;;;10326757;28;20041;-58
2023/04/26 03:03:29;;;;;;;0.98;0.98;;;;;;;;;;10325305;28;20042;-58
2023/04/26 03:08:30;;;;;;;1.00;1.00;;;;;;;;;;10314759;28;20030;-58
2023/04/26 03:13:31;;;;;;;1.42;1.20;;;;;;;;;;10326174;28;20031;-59
2023/04/26 03:18:31;;;;;;;1.20;1.10;;;;;;;;;;10326726;28;20038;-58
2023/04/26 03:23:32;;;;;;;1.00;0.98;;;;;;;;;;10325634;28;20019;-58
2023/04/26 03:28:33;;;;;;;1.17;1.10;;;;;;;;;;10320640;28;20034;-57
2023/04/26 03:33:34;;;;;;;1.02;0.90;;;;;;;;;;10325481;28;20049;-57
2023/04/26 03:38:34;;;;;;;1.00;0.90;;;;;;;;;;10325475;28;20490;-58
2023/04/26 03:43:35;;;;;;;1.20;1.10;;;;;;;;;;10308762;28;20041;-57
2023/04/26 03:48:36;;;;;;;1.10;1.00;;;;;;;;;;10324953;28;20088;-59
2023/04/26 03:53:36;;;;;;;3.25;1.05;;;;;;;;;;10325905;28;20026;-58
2023/04/26 03:58:37;;;;;;;1.00;1.00;;;;;;;;;;10325365;28;20118;-58
2023/04/26 04:03:37;;;;;;;1.00;1.00;;;;;;;;;;10324684;28;20027;-58
2023/04/26 04:08:38;;;;;;;1.42;1.33;;;;;;;;;;10324143;28;20049;-58
2023/04/26 04:13:38;;;;;;;1.17;1.15;;;;;;;;;;10323571;28;20085;-58
2023/04/26 04:18:39;;;;;;;0.93;0.93;;;;;;;;;;10324196;28;20030;-58
2023/04/26 04:23:41;;;;;;;0.90;0.90;;;;;;;;;;10322576;28;20038;-58
2023/04/26 04:28:41;;;;;;;1.65;1.15;;;;;;;;;;10319411;28;20540;-58
2023/04/26 04:33:42;;;;;;;1.27;1.05;;;;;;;;;;10323304;28;20069;-58
2023/04/26 04:38:43;;;;;;;0.98;0.98;;;;;;;;;;10321417;28;20069;-58
2023/04/26 04:43:44;;;;;;;1.40;1.20;;;;;;;;;;10322586;28;20031;-58
2023/04/26 04:48:45;;;;;;;1.33;1.13;;;;;;;;;;10322616;28;20030;-58
2023/04/26 04:53:45;;;;;;;1.70;1.20;;;;;;;;;;10328853;28;20026;-59
2023/04/26 04:58:46;;;;;;;1.08;1.00;;;;;;;;;;10306170;28;20030;-58
2023/04/26 05:03:47;;;;;;;1.75;0.90;;;;;;;;;;10305858;28;20355;-58
2023/04/26 05:08:47;;;;;;;0.90;0.90;;;;;;;;;;10322513;28;20046;-59
2023/04/26 05:13:48;;;;;;;1.20;1.10;;;;;;;;;;10320573;28;20175;-59
2023/04/26 05:18:49;;;;;;;1.80;1.17;;;;;;;;;;10323775;28;20026;-58
2023/04/26 05:23:49;;;;;;;3.92;1.13;;;;;;;;;;10302707;28;20030;-59
2023/04/26 05:28:50;;;;;;;19.67;2.10;;;;;;;;;;10323206;28;20080;-57
2023/04/26 05:33:50;;;;;;;15.25;1.90;;;;;;;;;;10330073;28;20030;-57
2023/04/26 05:38:51;;;;;;;6.32;1.50;;;;;;;;;;10327940;28;20226;-58
2023/04/26 05:43:52;;;;;;;5.10;1.42;;;;;;;;;;10329058;28;20426;-60
2023/04/26 05:48:52;;;;;;;7.15;1.60;;;;;;;;;;10332398;28;20117;-62
2023/04/26 05:53:53;;;;;;;5.10;1.20;;;;;;;;;;10324618;28;20037;-55
2023/04/26 05:58:54;;;;;;;6.45;1.70;;;;;;;;;;10323699;28;20037;-55
2023/04/26 06:03:54;;;;;;;8.27;1.70;;;;;;;;;;10309358;28;20037;-55
2023/04/26 06:08:55;;;;;;;5.13;1.50;;;;;;;;;;10328272;28;20041;-55
2023/04/26 06:13:56;;;;;;;9.43;1.77;;;;;;;;;;10328068;28;20037;-55
2023/04/26 06:18:56;;;;;;;9.60;1.70;;;;;;;;;;10321476;28;20497;-56
2023/04/26 06:23:57;;;;;;;7.68;2.17;;;;;;;;;;10327605;28;20137;-55
2023/04/26 06:28:58;;;;;;;11.60;1.80;;;;;;;;;;10318176;28;20045;-55
2023/04/26 06:33:58;;;;;;;8.30;2.08;;;;;;;;;;10327585;28;20031;-54
2023/04/26 06:38:59;;;;;;;9.30;1.83;;;;;;;;;;10320538;28;20050;-55
2023/04/26 06:43:59;;;;;;;7.70;1.95;;;;;;;;;;10322742;28;20549;-54
2023/04/26 06:49:00;;;;;;;10.02;1.83;;;;;;;;;;10326488;28;20475;-54
2023/04/26 06:54:01;;;;;;;3.38;1.83;;;;;;;;;;10325540;28;20440;-58
2023/04/26 06:59:05;;;;;;;4.00;1.77;;;;;;;;;;10327595;28;20033;-54
2023/04/26 07:04:06;;;;;;;7.55;1.98;;;;;;;;;;10338965;28;20026;-54
2023/04/26 07:09:07;;;;;;;7.72;2.00;;;;;;;;;;10326052;28;20037;-57
2023/04/26 07:14:10;;;;;;;5.22;1.52;;;;;;;;;;10324612;28;20033;-59
2023/04/26 07:19:11;;;;;;;2.08;1.55;;;;;;;;;;10325817;28;20459;-57
2023/04/26 07:24:12;;;;;;;5.15;2.10;;;;;;;;;;10326504;28;20114;-64
2023/04/26 07:29:13;;;;;;;3.63;1.60;;;;;;;;;;10308299;28;20034;-64
2023/04/26 07:34:14;;;;;;;4.50;1.80;;;;;;;;;;10324725;28;20030;-59
2023/04/26 07:39:14;;;;;;;2.53;1.67;;;;;;;;;;10324522;28;20069;-59
2023/04/26 07:44:15;;;;;;;4.55;1.50;;;;;;;;;;10324948;28;20037;-60
2023/04/26 07:49:15;;;;;;;3.53;1.40;;;;;;;;;;10325000;28;20072;-57
2023/04/26 07:54:16;;;;;;;3.17;1.50;;;;;;;;;;10325180;28;20034;-58
2023/04/26 07:59:16;;;;;;;9.38;1.50;;;;;;;;;;10302400;28;20034;-62
2023/04/26 08:04:33;;;;;;;8.95;1.55;;;;;;;;;;10324871;28;20497;-65
2023/04/26 08:09:34;;;;;;;2.53;1.50;;;;;;;;;;10324565;28;20478;-61
2023/04/26 08:14:35;;;;;;;3.50;1.40;;;;;;;;;;10324090;28;20022;-64
2023/04/26 08:19:36;;;;;;;5.18;1.50;;;;;;;;;;10323450;28;20033;-59
2023/04/26 08:24:36;;;;;;;1.50;1.40;;;;;;;;;;10324494;28;20049;-57
2023/04/26 08:29:37;;;;;;;5.60;1.63;;;;;;;;;;10324625;28;20386;-57
2023/04/26 08:34:38;;;;;;;4.60;1.60;;;;;;;;;;10323053;28;20538;-58
2023/04/26 08:39:38;;;;;;;1.80;1.50;;;;;;;;;;10324305;28;20042;-59
2023/04/26 08:44:42;;;;;;;4.15;1.38;;;;;;;;;;10324526;28;20030;-61
2023/04/26 08:49:51;;;;;;;1.77;1.40;;;;;;;;;;10318777;28;20426;-59
2023/04/26 08:54:53;;;;;;;2.92;1.60;;;;;;;;;;10316765;28;20467;-59
2023/04/26 08:59:56;;;;;;;6.80;1.63;;;;;;;;;;10325724;28;20373;-58
2023/04/26 09:04:57;;;;;;;4.32;1.60;;;;;;;;;;10314049;28;20033;-57
2023/04/26 09:09:59;;;;;;;3.88;1.48;;;;;;;;;;10322682;28;20038;-59
2023/04/26 09:15:00;;;;;;;4.22;1.23;;;;;;;;;;10331367;28;20116;-55
2023/04/26 09:20:26;;;;;;;3.80;1.70;;;;;;;;;;10330638;28;20474;-57
2023/04/26 09:25:30;;;;;;;3.17;1.90;;;;;;;;;;10327364;28;20100;-63
2023/04/26 09:30:38;;;;;;;5.13;1.55;;;;;;;;;;10323723;28;20101;-57
2023/04/26 09:35:40;;;;;;;;;;;;;;;;;;10327739;28;20185;-63
2023/04/26 09:40:43;;;;;;;5.82;1.75;;;;;;;;;;10329725;28;19957;-55
2023/04/26 09:45:49;;;;;;;2.85;1.80;;;;;;;;;;10336012;28;20014;-56
2023/04/26 09:50:52;;;;;;;8.40;1.60;;;;;;;;;;10329904;28;20158;-54
2023/04/26 09:55:57;;;;;;;4.60;1.63;;;;;;;;;;10328066;28;20190;-57
2023/04/26 10:00:58;;;;;;;4.22;1.48;;;;;;;;;;10328627;28;20294;-61
2023/04/26 10:05:59;;;;;;;1.77;1.33;;;;;;;;;;10329715;28;20018;-54
2023/04/26 10:11:03;;;;;;;6.28;1.58;;;;;;;;;;10310383;28;20400;-62
2023/04/26 10:16:05;;;;;;;3.10;1.38;;;;;;;;;;10331283;28;20117;-61
2023/04/26 10:21:17;;;;;;;4.75;1.52;;;;;;;;;;10325595;28;20034;-63
2023/04/26 10:26:55;;;;;;;2.90;1.30;;;;;;;;;;10329119;28;20386;-55
2023/04/26 10:32:04;;;;;;;1.77;1.45;;;;;;;;;;10328393;28;20441;-54
2023/04/26 10:37:12;;;;;;;3.20;1.25;;;;;;;;;;10320400;28;20125;-56
2023/04/26 10:42:24;;;;;;;3.80;1.50;;;;;;;;;;10328799;28;20014;-57
2023/04/26 10:47:35;;;;;;;2.83;1.30;;;;;;;;;;10314436;28;20034;-56
2023/04/26 10:52:57;;;;;;;3.47;1.25;;;;;;;;;;10329020;28;20038;-53
2023/04/26 10:57:57;;;;;;;3.15;1.40;;;;;;;;;;10304238;28;20018;-54
2023/04/26 11:03:03;;;;;;;2.13;1.42;;;;;;;;;;10319114;28;20023;-54
2023/04/26 11:08:18;;;;;;;3.53;1.30;;;;;;;;;;10325381;28;20060;-54
2023/04/26 11:13:19;;;;;;;1.80;1.50;;;;;;;;;;10327656;28;20034;-54
2023/04/26 11:18:20;;;;;;;1.38;1.27;;;;;;;;;;10327634;28;20038;-54
2023/04/26 11:23:22;;;;;;;3.25;1.35;;;;;;;;;;10332329;28;20116;-60
2023/04/26 11:28:23;;;;;;;2.17;1.33;;;;;;;;;;10326097;28;20038;-58
2023/04/26 11:33:24;;;;;;;3.28;1.40;;;;;;;;;;10320693;28;20049;-63
2023/04/26 11:38:27;;;;;;;2.13;1.48;;;;;;;;;;10324967;28;20129;-56
2023/04/26 11:43:38;;;;;;;1.80;1.40;;;;;;;;;;10324841;28;20121;-57
2023/04/26 11:48:40;;;;;;;1.63;1.40;;;;;;;;;;10325188;28;20072;-54
2023/04/26 11:53:42;;;;;;;2.80;1.40;;;;;;;;;;10301551;28;20070;-58
2023/04/26 11:58:50;;;;;;;2.70;1.38;;;;;;;;;;10325192;28;20026;-56
2023/04/26 12:03:56;;;;;;;2.53;1.20;;;;;;;;;;10329831;28;20038;-56
2023/04/26 12:08:57;;;;;;;2.08;1.42;;;;;;;;;;10330154;28;20162;-52
2023/04/26 12:13:58;;;;;;;2.67;1.20;;;;;;;;;;10322190;28;20170;-55
2023/04/26 12:18:59;;;;;;;1.83;1.48;;;;;;;;;;10324662;28;20018;-57
2023/04/26 12:24:00;;;;;;;2.25;1.42;;;;;;;;;;10318409;28;20030;-56
2023/04/26 12:29:00;;;;;;;1.40;1.30;;;;;;;;;;10325311;28;20422;-54
2023/04/26 12:34:01;;;;;;;2.08;1.38;;;;;;;;;;10320876;28;20047;-55
2023/04/26 12:39:04;;;;;;;11.00;1.70;;;;;;;;;;10305792;28;20045;-55
2023/04/26 12:44:05;;;;;;;2.65;1.33;;;;;;;;;;10320545;28;20128;-55
2023/04/26 12:49:06;;;;;;;4.35;1.40;;;;;;;;;;10324815;28;20026;-54
2023/04/26 12:54:07;;;;;;;2.45;1.40;;;;;;;;;;10310293;28;20485;-57
2023/04/26 12:59:07;;;;;;;2.00;1.42;;;;;;;;;;10313703;28;20026;-57
2023/04/26 13:04:08;;;;;;;1.73;1.20;;;;;;;;;;10322571;28;20592;-55
2023/04/26 13:09:11;;;;;;;6.00;1.63;;;;;;;;;;10302920;28;20046;-55
2023/04/26 13:14:12;;;;;;;3.90;1.42;;;;;;;;;;10299501;28;20018;-54
2023/04/26 13:19:12;;;;;;;7.93;1.60;;;;;;;;;;10313449;28;20162;-54
2023/04/26 13:24:13;;;;;;;3.22;1.38;;;;;;;;;;10322138;28;20034;-55
2023/04/26 13:29:14;;;;;;;3.30;1.60;;;;;;;;;;10323054;28;20141;-55
2023/04/26 13:34:14;;;;;;;3.15;1.60;;;;;;;;;;10318275;28;20470;-55
2023/04/26 13:39:15;;;;;;;4.20;1.63;;;;;;;;;;10314577;28;20117;-56
2023/04/26 13:44:16;;;;;;;5.30;1.63;;;;;;;;;;10316494;28;20089;-56
2023/04/26 13:49:16;;;;;;;2.95;1.60;;;;;;;;;;10344247;28;20080;-55
2023/04/26 13:54:18;;;;;;;3.95;1.65;;;;;;;;;;10342630;28;20069;-57
2023/04/26 13:59:19;;;;;;;7.55;1.63;;;;;;;;;;10327808;28;20034;-63
2023/04/26 14:04:20;;;;;;;3.72;1.70;;;;;;;;;;10328413;28;20108;-57
2023/04/26 14:09:20;;;;;;;2.30;1.45;;;;;;;;;;10321578;28;20067;-63
2023/04/26 14:14:21;;;;;;;1.88;1.40;;;;;;;;;;10328870;28;20034;-56
2023/04/26 14:19:21;;;;;;;6.78;1.20;;;;;;;;;;10325942;28;20034;-55
2023/04/26 14:24:22;;;;;;;3.58;2.13;;;;;;;;;;10334442;28;20019;-55
2023/04/26 14:29:23;;;;;;;3.83;1.35;;;;;;;;;;10328642;28;20022;-57
2023/04/26 14:34:23;;;;;;;4.00;1.60;;;;;;;;;;10330235;28;20041;-55
2023/04/26 14:39:24;;;;;;;1.83;1.40;;;;;;;;;;10323773;28;20050;-60
2023/04/26 14:44:26;;;;;;;6.93;1.65;;;;;;;;;;10325900;28;20022;-59
2023/04/26 14:49:26;;;;;;;1.50;1.40;;;;;;;;;;10333323;28;20096;-58
2023/04/26 14:54:27;;;;;;;3.28;1.60;;;;;;;;;;10325044;28;20026;-59
2023/04/26 14:59:27;;;;;;;1.83;1.55;;;;;;;;;;10323205;28;20041;-58
2023/04/26 15:04:28;;;;;;;1.75;1.40;;;;;;;;;;10325102;28;20015;-57
2023/04/26 15:09:29;;;;;;;1.30;1.20;;;;;;;;;;10326399;28;20022;-56
2023/04/26 15:14:30;;;;;;;2.03;1.20;;;;;;;;;;10343499;28;20057;-56
2023/04/26 15:19:31;;;;;;;1.63;1.30;;;;;;;;;;10326252;28;20270;-59
2023/04/26 15:24:36;;;;;;;1.45;1.20;;;;;;;;;;10324771;28;20429;-57
2023/04/26 15:29:37;;;;;;;1.58;1.30;;;;;;;;;;10320708;28;20053;-56
2023/04/26 15:34:42;;;;;;;1.95;1.45;;;;;;;;;;10325456;28;20513;-57
2023/04/26 15:39:42;;;;;;;2.80;1.45;;;;;;;;;;10324120;28;20125;-62
2023/04/26 15:44:43;;;;;;;2.47;1.23;;;;;;;;;;10325553;28;20022;-55
2023/04/26 15:49:44;;;;;;;2.63;1.23;;;;;;;;;;10331180;28;20084;-54
2023/04/26 15:54:44;;;;;;;2.22;1.30;;;;;;;;;;10325315;28;20034;-54
2023/04/26 15:59:45;;;;;;;3.38;1.27;;;;;;;;;;10324799;28;20093;-57
2023/04/26 16:04:45;;;;;;;1.75;1.23;;;;;;;;;;10319745;28;20039;-54
2023/04/26 16:09:46;;;;;;;1.95;1.27;;;;;;;;;;10313324;28;20034;-56
2023/04/26 16:14:47;;;;;;;1.90;1.40;;;;;;;;;;10321463;28;20034;-52
2023/04/26 16:19:48;;;;;;;1.30;1.20;;;;;;;;;;10323065;28;20563;-55
2023/04/26 16:24:49;;;;;;;1.52;1.20;;;;;;;;;;10310747;28;20035;-54
2023/04/26 16:29:49;;;;;;;4.40;1.50;;;;;;;;;;10322702;28;20027;-54
2023/04/26 16:34:50;;;;;;;1.98;1.30;;;;;;;;;;10316573;28;20408;-54
2023/04/26 16:39:54;;;;;;;2.00;1.20;;;;;;;;;;10311931;28;20056;-56
2023/04/26 16:44:55;;;;;;;2.72;1.30;;;;;;;;;;10310785;28;20039;-60
2023/04/26 16:49:56;;;;;;;2.35;1.25;;;;;;;;;;10317429;28;20026;-59
2023/04/26 16:54:56;;;;;;;6.32;1.20;;;;;;;;;;10314376;28;20052;-59
2023/04/26 16:59:57;;;;;;;2.95;1.20;;;;;;;;;;10326062;28;20121;-60
2023/04/26 17:04:58;;;;;;;1.30;1.20;;;;;;;;;;10321966;28;20035;-61
2023/04/26 17:09:58;;;;;;;2.67;1.20;;;;;;;;;;10321477;28;20042;-60
2023/04/26 17:15:00;;;;;;;2.60;1.20;;;;;;;;;;10313590;28;20043;-60
2023/04/26 17:20:01;;;;;;;1.60;1.20;;;;;;;;;;10315768;28;20394;-60
2023/04/26 17:25:01;;;;;;;1.40;1.30;;;;;;;;;;10330617;28;20093;-61
2023/04/26 17:30:02;;;;;;;4.28;1.30;;;;;;;;;;10331412;28;20026;-61
2023/04/26 17:35:03;;;;;;;5.43;1.45;;;;;;;;;;10331686;28;20113;-63
2023/04/26 17:40:06;;;;;;;3.90;1.60;;;;;;;;;;10328465;28;20042;-62
2023/04/26 17:45:07;;;;;;;1.50;1.40;;;;;;;;;;10327853;28;20367;-62
2023/04/26 17:50:08;;;;;;;9.45;1.88;;;;;;;;;;10312752;28;20022;-62
2023/04/26 17:55:09;;;;;;;11.52;2.50;;;;;;;;;;10329076;28;20402;-62
2023/04/26 18:00:11;;;;;;;8.07;1.98;;;;;;;;;;10328068;28;20035;-59
2023/04/26 18:05:12;;;;;;;5.05;1.77;;;;;;;;;;10323992;28;20490;-61
2023/04/26 18:10:13;;;;;;;3.17;1.60;;;;;;;;;;10326043;28;20034;-59
2023/04/26 18:15:13;;;;;;;4.97;1.65;;;;;;;;;;10327079;28;20054;-61
2023/04/26 18:20:15;;;;;;;5.18;2.15;;;;;;;;;;10329278;28;20239;-59
2023/04/26 18:25:15;;;;;;;8.57;1.85;;;;;;;;;;10321462;28;20061;-59
2023/04/26 18:30:17;;;;;;;7.95;1.73;;;;;;;;;;10329382;28;20038;-58
2023/04/26 18:35:17;;;;;;;2.35;1.70;;;;;;;;;;10325183;28;20022;-59
2023/04/26 18:40:18;;;;;;;1.63;1.50;;;;;;;;;;10327701;28;20056;-59
2023/04/26 18:45:18;;;;;;;6.05;1.52;;;;;;;;;;10327736;28;20042;-59
2023/04/26 18:50:19;;;;;;;2.00;1.48;;;;;;;;;;10321613;28;20086;-58
2023/04/26 18:55:20;;;;;;;4.40;1.60;;;;;;;;;;10324651;28;20438;-58
2023/04/26 19:00:21;;;;;;;2.45;1.58;;;;;;;;;;10324650;28;20018;-58
2023/04/26 19:05:21;;;;;;;6.13;1.75;;;;;;;;;;10326981;28;20030;-59
2023/04/26 19:10:22;;;;;;;2.72;1.55;;;;;;;;;;10322330;28;20033;-58
2023/04/26 19:15:23;;;;;;;5.50;1.50;;;;;;;;;;10324376;28;20117;-59
2023/04/26 19:20:25;;;;;;;6.47;1.40;;;;;;;;;;10329722;28;20030;-59
2023/04/26 19:25:26;;;;;;;1.48;1.38;;;;;;;;;;10326899;28;20088;-59
2023/04/26 19:30:26;;;;;;;4.07;1.50;;;;;;;;;;10324524;28;20100;-59
2023/04/26 19:35:27;;;;;;;2.78;1.33;;;;;;;;;;10327168;28;20030;-61
2023/04/26 19:40:28;;;;;;;4.15;1.60;;;;;;;;;;10325295;28;20038;-60
2023/04/26 19:45:28;;;;;;;10.82;2.95;;;;;;;;;;10326113;28;20030;-58
2023/04/26 19:50:29;;;;;;;11.25;3.15;;;;;;;;;;10325698;28;20362;-60
2023/04/26 19:55:30;;;;;;;10.85;2.70;;;;;;;;;;10326816;28;20026;-60
2023/04/26 20:00:34;;;;;;;8.13;2.90;;;;;;;;;;10324426;28;20155;-59
2023/04/26 20:05:34;;;;;;;10.13;2.60;;;;;;;;;;10323054;28;20037;-59
2023/04/26 20:10:35;;;;;;;6.97;2.40;;;;;;;;;;10324440;28;20096;-59
2023/04/26 20:15:36;;;;;;;6.63;1.98;;;;;;;;;;10321346;28;20520;-58
2023/04/26 20:20:36;;;;;;;5.07;2.13;;;;;;;;;;10323358;28;20477;-58
2023/04/26 20:25:37;;;;;;;4.20;2.10;;;;;;;;;;10313120;28;20159;-59
2023/04/26 20:30:37;;;;;;;7.10;1.70;;;;;;;;;;10324317;28;20022;-59
2023/04/26 20:35:38;;;;;;;7.97;2.03;;;;;;;;;;10320529;28;20034;-60
2023/04/26 20:40:39;;;;;;;11.63;1.95;;;;;;;;;;10321588;28;20092;-59
2023/04/26 20:45:41;;;;;;;4.85;1.75;;;;;;;;;;10323734;28;20623;-59
2023/04/26 20:50:41;;;;;;;15.82;1.92;;;;;;;;;;10310589;28;20038;-59
2023/04/26 20:55:42;;;;;;;5.55;1.70;;;;;;;;;;10321922;28;20037;-58
2023/04/26 21:00:42;;;;;;;11.32;2.05;;;;;;;;;;10330057;28;20022;-57
2023/04/26 21:05:43;;;;;;;3.10;1.75;;;;;;;;;;10329544;28;20028;-57
2023/04/26 21:10:44;;;;;;;6.22;1.77;;;;;;;;;;10330007;28;20497;-57
2023/04/26 21:15:45;;;;;;;9.25;2.03;;;;;;;;;;10331156;28;20064;-58
2023/04/26 21:20:46;;;;;;;6.97;1.92;;;;;;;;;;10330290;28;20386;-56
2023/04/26 21:25:47;;;;;;;9.82;1.90;;;;;;;;;;10331450;28;20026;-57
2023/04/26 21:30:48;;;;;;;6.45;1.60;;;;;;;;;;10331410;28;20042;-58
2023/04/26 21:35:48;;;;;;;20.05;2.05;;;;;;;;;;10336001;28;20037;-62
2023/04/26 21:40:49;;;;;;;4.05;1.80;;;;;;;;;;10329366;28;20046;-58
2023/04/26 21:45:51;;;;;;;4.15;2.10;;;;;;;;;;10325126;28;20073;-58
2023/04/26 21:50:52;;;;;;;4.47;1.55;;;;;;;;;;10326385;28;20042;-58
2023/04/26 21:55:53;;;;;;;6.25;1.63;;;;;;;;;;10328403;28;20089;-58
2023/04/26 22:00:53;;;;;;;5.07;1.73;;;;;;;;;;10329854;28;20027;-58
2023/04/26 22:05:54;;;;;;;3.78;1.95;;;;;;;;;;10322844;28;20044;-57
2023/04/26 22:10:55;;;;;;;3.08;1.92;;;;;;;;;;10320645;28;20039;-58
2023/04/26 22:15:55;;;;;;;2.13;1.40;;;;;;;;;;10320033;28;20030;-58
2023/04/26 22:20:56;;;;;;;13.95;1.85;;;;;;;;;;10330793;28;20034;-57
2023/04/26 22:25:58;;;;;;;1.88;1.40;;;;;;;;;;10328353;28;20026;-58
2023/04/26 22:30:59;;;;;;;7.47;1.70;;;;;;;;;;10328816;28;20058;-58
2023/04/26 22:35:59;;;;;;;5.38;1.70;;;;;;;;;;10329693;28;20042;-58
2023/04/26 22:41:00;;;;;;;3.60;1.55;;;;;;;;;;10323329;28;20050;-57
2023/04/26 22:46:00;;;;;;;2.85;1.52;;;;;;;;;;10306315;28;20026;-58
2023/04/26 22:51:01;;;;;;;1.77;1.42;;;;;;;;;;10329571;28;20044;-57
2023/04/26 22:56:02;;;;;;;2.42;1.48;;;;;;;;;;10334380;28;20081;-57
2023/04/26 23:01:02;;;;;;;2.83;1.95;;;;;;;;;;10326487;28;20113;-57
2023/04/26 23:06:04;;;;;;;3.72;1.67;;;;;;;;;;10327343;28;20034;-57
2023/04/26 23:11:08;;;;;;;3.38;1.73;;;;;;;;;;10328761;28;20038;-58
2023/04/26 23:16:08;;;;;;;2.25;1.40;;;;;;;;;;10326384;28;20032;-57
2023/04/26 23:21:09;;;;;;;2.63;1.55;;;;;;;;;;10326377;28;20037;-57
2023/04/26 23:26:10;;;;;;;2.65;1.55;;;;;;;;;;10326600;28;20026;-58
2023/04/26 23:31:11;;;;;;;2.28;1.52;;;;;;;;;;10325386;28;20150;-61
2023/04/26 23:36:12;;;;;;;6.65;1.80;;;;;;;;;;10326356;28;20435;-58
2023/04/26 23:41:12;;;;;;;4.35;1.63;;;;;;;;;;10325370;28;20050;-57
2023/04/26 23:46:13;;;;;;;1.63;1.30;;;;;;;;;;10307684;28;20038;-60
2023/04/26 23:51:14;;;;;;;2.10;1.60;;;;;;;;;;10325750;28;20030;-57
2023/04/26 23:56:14;;;;;;;2.75;1.55;;;;;;;;;;10325711;28;20433;-57
